Etusivu
METAR-TAF:

METAR-TAF

Lentoasemat :

Stord, Norja

Leveyspiiri: 59-48N, Pituuspiiri: 005-21E, korkeus merenpinnasta: 49 m

Tämänhetkinen sää

Tämä raportti tehtiin 1 tunti ja 7 minuuttia sitten, kello 16.20 UTC
Tuuli 15 kn etelästä puuskistuen 25 kn:hen
Lämpötila 17°C
Kosteus 55%
Ilmanpaine 1023 hPa
Näkyvyys 10 km tai enemmän
ei pilviä alle 1500 m:ssä eikä cumulonimbus-pilviä

METAR: ENSO 191620Z 19015G25KT CAVOK 17/08 Q1023

Aika: 19:27 (17:27 UTC)

Sääennuste

Tämä raportti tehtiin 57 minuuttia sitten, kello 16.30 UTC
Ennuste voimassa 19. päivästä klo 16 UTC - 19. päivään klo 21 UTC
Tuuli 15 kn etelästä puuskistuen 25 kn:hen
Näkyvyys 10 km tai enemmän
ei pilviä alle 1500 m:ssä eikä cumulonimbus-pilviä
Todennäköisyys 30%
19. päivästä klo 19 UTC - 19. päivään klo 21 UTC
Hajonneita pilviä 900 ft:n korkeudessa

TAF: ENSO 191630Z 1916/1921 19015G25KT CAVOK PROB30 1919/1921 BKN009

Säähavainnot ja -ennusteet yli 4000 lentoasemalta (METAR- ja TAF-raportit).

Käytössä olevat sääasemat on merkitty karttaan keltaisilla ja punaisilla pisteillä.

Aseta hiiri pisteen päälle nähdäksesi sääaseman nimen.

Klikkaa sitten nähdäksesi säähavainnot ja -ennusteet.

Kartan vaihtaminen: klikkaa mustalla rastilla varustettuja vihreitä pisteitä, niin voit zoomata sisään; viivalla varustettua vihreää pistettä, niin voit zoomata ulos tai vihreitä nuolia, niin pääset viereisille kartoille.


METAR-TAF: